createdAt,value
2023-04-19T00:01:01.705Z,1.97
2023-04-19T00:02:03.372Z,2.20
2023-04-19T00:03:07.001Z,2.47
2023-04-19T00:04:08.881Z,2.60
2023-04-19T00:05:12.060Z,2.90
2023-04-19T00:06:15.220Z,2.77
2023-04-19T00:07:18.650Z,2.50
2023-04-19T00:08:20.300Z,2.30
2023-04-19T00:09:21.940Z,2.30
2023-04-19T00:10:23.559Z,2.30
2023-04-19T00:11:25.635Z,2.23
2023-04-19T00:12:27.240Z,2.37
2023-04-19T00:13:28.773Z,2.47
2023-04-19T00:14:30.375Z,1.70
2023-04-19T00:15:32.040Z,2.23
2023-04-19T00:16:33.597Z,1.80
2023-04-19T00:17:35.390Z,1.60
2023-04-19T00:18:38.820Z,1.97
2023-04-19T00:19:40.393Z,1.90
2023-04-19T00:20:41.909Z,1.80
2023-04-19T00:21:43.501Z,1.90
2023-04-19T00:22:45.056Z,1.80
2023-04-19T00:23:46.629Z,2.03
2023-04-19T00:24:48.131Z,1.83
2023-04-19T00:25:49.868Z,1.90
2023-04-19T00:26:51.363Z,2.00
2023-04-19T00:27:52.907Z,2.00
2023-04-19T00:28:54.850Z,2.20
2023-04-19T00:29:57.693Z,2.00
2023-04-19T00:30:59.316Z,1.90
2023-04-19T00:32:00.845Z,1.80
2023-04-19T00:33:02.558Z,1.60
2023-04-19T00:34:04.129Z,2.10
2023-04-19T00:35:06.220Z,2.20
2023-04-19T00:36:08.064Z,2.80
2023-04-19T00:37:11.056Z,2.60
2023-04-19T00:38:12.711Z,2.07
2023-04-19T00:39:15.181Z,2.30
2023-04-19T00:40:16.721Z,2.83
2023-04-19T00:41:18.298Z,2.23
2023-04-19T00:42:19.836Z,2.33
2023-04-19T00:43:21.383Z,2.17
2023-04-19T00:44:23.632Z,2.53
2023-04-19T00:45:26.283Z,2.50
2023-04-19T00:46:27.991Z,2.57
2023-04-19T00:47:30.550Z,2.27
2023-04-19T00:48:32.243Z,2.20
2023-04-19T00:49:34.070Z,2.20
2023-04-19T00:50:36.175Z,2.13
2023-04-19T00:51:38.322Z,2.00
2023-04-19T00:52:40.405Z,2.20
2023-04-19T00:53:42.077Z,2.40
2023-04-19T00:54:45.234Z,2.53
2023-04-19T00:55:48.044Z,2.40
2023-04-19T00:56:50.141Z,2.63
2023-04-19T00:57:52.249Z,2.30
2023-04-19T00:58:54.438Z,2.37
2023-04-19T00:59:57.183Z,2.40
2023-04-19T01:00:59.993Z,2.47
2023-04-19T01:02:02.072Z,2.67
2023-04-19T01:03:04.334Z,2.53
2023-04-19T01:04:06.488Z,2.80
2023-04-19T01:05:08.598Z,2.40
2023-04-19T01:06:10.400Z,2.57
2023-04-19T01:07:11.967Z,2.23
2023-04-19T01:08:13.555Z,2.40
2023-04-19T01:09:15.294Z,2.47
2023-04-19T01:10:16.926Z,2.57
2023-04-19T01:11:18.441Z,2.20
2023-04-19T01:12:20.171Z,2.63
2023-04-19T01:13:21.982Z,2.93
2023-04-19T01:14:23.557Z,2.43
2023-04-19T01:15:25.095Z,2.40
2023-04-19T01:16:28.059Z,3.00
2023-04-19T01:17:32.189Z,2.57
2023-04-19T01:18:37.494Z,2.90
2023-04-19T01:19:39.412Z,2.60
2023-04-19T01:20:41.008Z,2.63
2023-04-19T01:21:43.825Z,2.70
2023-04-19T01:22:45.583Z,2.50
2023-04-19T01:23:47.150Z,2.40
2023-04-19T01:24:48.706Z,2.37
2023-04-19T01:25:50.294Z,2.40
2023-04-19T01:26:51.887Z,2.50
2023-04-19T01:27:53.403Z,2.33
2023-04-19T01:28:55.034Z,2.60
2023-04-19T01:29:56.641Z,2.33
2023-04-19T01:30:58.283Z,2.50
2023-04-19T01:31:59.836Z,2.20
2023-04-19T01:33:01.469Z,2.23
2023-04-19T01:34:03.013Z,2.40
2023-04-19T01:35:05.180Z,2.10
2023-04-19T01:36:07.270Z,2.40
2023-04-19T01:37:09.172Z,2.57
2023-04-19T01:38:10.892Z,2.57
2023-04-19T01:39:12.439Z,2.70
2023-04-19T01:40:14.290Z,2.60
2023-04-19T01:41:16.047Z,2.30
2023-04-19T01:42:17.620Z,2.63
2023-04-19T01:43:19.147Z,2.27
2023-04-19T01:44:20.699Z,2.60
2023-04-19T01:45:22.260Z,2.50
2023-04-19T01:46:23.965Z,2.30
2023-04-19T01:47:25.846Z,2.23
2023-04-19T01:48:27.455Z,2.70
2023-04-19T01:49:29.036Z,2.20
2023-04-19T01:50:31.897Z,2.43
2023-04-19T01:51:33.406Z,2.30
2023-04-19T01:52:34.915Z,2.37
2023-04-19T01:53:36.438Z,2.57
2023-04-19T01:54:37.948Z,2.50
2023-04-19T01:55:39.646Z,2.50
2023-04-19T01:56:41.239Z,2.70
2023-04-19T01:57:42.782Z,2.50
2023-04-19T01:58:44.281Z,2.80
2023-04-19T01:59:45.817Z,2.60
2023-04-19T02:00:47.447Z,2.60
2023-04-19T02:01:49.032Z,2.60
2023-04-19T02:02:50.800Z,2.07
2023-04-19T02:03:52.584Z,2.60
2023-04-19T02:04:54.360Z,2.60
2023-04-19T02:05:55.926Z,2.73
2023-04-19T02:06:57.441Z,2.43
2023-04-19T02:07:59.008Z,2.60
2023-04-19T02:09:00.631Z,2.47
2023-04-19T02:10:02.307Z,2.90
2023-04-19T02:11:10.419Z,3.00
2023-04-19T02:12:11.943Z,2.40
2023-04-19T02:13:13.470Z,2.33
2023-04-19T02:14:15.258Z,2.30
2023-04-19T02:15:17.020Z,2.93
2023-04-19T02:16:19.048Z,2.73
2023-04-19T02:17:20.631Z,2.83
2023-04-19T02:18:22.514Z,2.63
2023-04-19T02:19:24.302Z,2.33
2023-04-19T02:20:25.823Z,2.50
2023-04-19T02:21:27.632Z,2.30
2023-04-19T02:22:29.149Z,2.47
2023-04-19T02:23:30.839Z,2.30
2023-04-19T02:24:32.371Z,2.50
2023-04-19T02:25:34.000Z,2.53
2023-04-19T02:26:35.566Z,2.10
2023-04-19T02:27:37.085Z,2.50
2023-04-19T02:28:39.284Z,2.70
2023-04-19T02:29:41.175Z,2.60
2023-04-19T02:30:42.965Z,2.40
2023-04-19T02:31:46.547Z,2.63
2023-04-19T02:32:49.320Z,2.60
2023-04-19T02:33:50.899Z,2.20
2023-04-19T02:34:52.442Z,2.50
2023-04-19T02:35:54.015Z,2.53
2023-04-19T02:36:55.578Z,2.90
2023-04-19T02:37:57.143Z,2.30
2023-04-19T02:38:59.370Z,2.53
2023-04-19T02:40:00.912Z,2.37
2023-04-19T02:41:04.424Z,2.50
2023-04-19T02:42:06.035Z,2.50
2023-04-19T02:43:07.644Z,2.70
2023-04-19T02:44:09.238Z,2.20
2023-04-19T02:45:10.990Z,2.40
2023-04-19T02:46:12.578Z,2.60
2023-04-19T02:47:14.162Z,2.10
2023-04-19T02:48:15.791Z,2.40
2023-04-19T02:49:17.809Z,2.60
2023-04-19T02:50:19.340Z,2.60
2023-04-19T02:51:20.924Z,2.40
2023-04-19T02:52:22.495Z,2.50
2023-04-19T02:53:24.153Z,2.80
2023-04-19T02:54:25.732Z,2.47
2023-04-19T02:55:27.328Z,2.50
2023-04-19T02:56:28.944Z,2.73
2023-04-19T02:57:30.664Z,2.47
2023-04-19T02:58:32.202Z,2.57
2023-04-19T02:59:34.013Z,2.30
2023-04-19T03:00:35.848Z,2.40
2023-04-19T03:01:37.633Z,2.30
2023-04-19T03:02:39.617Z,2.70
2023-04-19T03:03:41.400Z,2.47
2023-04-19T03:04:43.640Z,2.27
2023-04-19T03:05:45.314Z,2.47
2023-04-19T03:06:46.854Z,2.47
2023-04-19T03:07:48.394Z,2.30
2023-04-19T03:08:50.137Z,2.13
2023-04-19T03:09:51.664Z,2.20
2023-04-19T03:10:53.210Z,2.20
2023-04-19T03:11:54.876Z,2.20
2023-04-19T03:12:56.423Z,2.43
2023-04-19T03:13:57.949Z,2.33
2023-04-19T03:14:59.484Z,2.30
2023-04-19T03:16:01.055Z,2.20
2023-04-19T03:17:03.236Z,2.10
2023-04-19T03:18:04.922Z,2.23
2023-04-19T03:19:06.491Z,2.10
2023-04-19T03:20:11.945Z,2.67
2023-04-19T03:21:13.445Z,2.60
2023-04-19T03:22:15.019Z,2.40
2023-04-19T03:23:16.650Z,2.07
2023-04-19T03:24:28.089Z,2.43
2023-04-19T03:25:29.687Z,2.30
2023-04-19T03:26:31.444Z,2.20
2023-04-19T03:27:37.125Z,2.30
2023-04-19T03:28:38.692Z,2.17
2023-04-19T03:29:40.453Z,2.20
2023-04-19T03:30:42.376Z,2.03
2023-04-19T03:31:44.044Z,2.03
2023-04-19T03:32:48.211Z,2.50
2023-04-19T03:33:49.802Z,2.50
2023-04-19T03:34:51.356Z,2.30
2023-04-19T03:35:52.854Z,2.57
2023-04-19T03:36:55.196Z,2.40
2023-04-19T03:37:56.744Z,2.67
2023-04-19T03:38:58.336Z,2.33
2023-04-19T03:39:59.986Z,2.40
2023-04-19T03:41:01.535Z,2.50
2023-04-19T03:42:03.120Z,2.30
2023-04-19T03:43:04.762Z,2.37
2023-04-19T03:44:06.372Z,2.20
2023-04-19T03:45:08.408Z,2.40
2023-04-19T03:46:10.052Z,2.53
2023-04-19T03:47:11.701Z,2.63
2023-04-19T03:48:13.324Z,2.97
2023-04-19T03:49:15.170Z,2.77
2023-04-19T03:50:16.818Z,3.37
2023-04-19T03:51:18.770Z,3.90
2023-04-19T03:52:20.362Z,3.30
2023-04-19T03:53:21.947Z,3.87
2023-04-19T03:54:23.528Z,4.13
2023-04-19T03:55:25.058Z,3.97
2023-04-19T03:56:26.573Z,3.87
2023-04-19T03:57:28.127Z,4.03
2023-04-19T03:58:29.649Z,3.63
2023-04-19T03:59:31.388Z,3.50
2023-04-19T04:00:32.895Z,3.50
2023-04-19T04:01:34.479Z,3.80
2023-04-19T04:02:39.838Z,3.50
2023-04-19T04:03:41.826Z,4.03
2023-04-19T04:04:43.810Z,3.50
2023-04-19T04:05:45.598Z,3.67
2023-04-19T04:06:47.101Z,4.07
2023-04-19T04:07:48.649Z,4.03
2023-04-19T04:08:50.379Z,3.63
2023-04-19T04:09:51.936Z,3.97
2023-04-19T04:10:54.830Z,3.87
2023-04-19T04:11:56.409Z,4.30
2023-04-19T04:12:57.934Z,3.60
2023-04-19T04:13:59.550Z,3.87
2023-04-19T04:15:01.245Z,3.00
2023-04-19T04:16:03.036Z,3.57
2023-04-19T04:17:07.036Z,4.80
2023-04-19T04:18:09.188Z,4.23
2023-04-19T04:19:10.848Z,4.50
2023-04-19T04:20:13.649Z,4.80
2023-04-19T04:21:15.267Z,4.27
2023-04-19T04:22:17.311Z,4.20
2023-04-19T04:23:21.463Z,4.23
2023-04-19T04:24:22.988Z,3.77
2023-04-19T04:25:25.946Z,3.77
2023-04-19T04:26:30.800Z,3.80
2023-04-19T04:27:33.303Z,4.17
2023-04-19T04:28:34.866Z,3.80
2023-04-19T04:29:37.460Z,3.63
2023-04-19T04:30:40.913Z,3.90
2023-04-19T04:31:42.719Z,3.77
2023-04-19T04:32:45.106Z,3.40
2023-04-19T04:33:46.709Z,3.73
2023-04-19T04:34:51.374Z,4.17
2023-04-19T04:35:54.205Z,4.00
2023-04-19T04:36:55.861Z,4.00
2023-04-19T04:37:57.408Z,3.23
2023-04-19T04:39:01.962Z,2.80
2023-04-19T04:40:08.162Z,3.30
2023-04-19T04:41:12.194Z,3.23
2023-04-19T04:42:13.723Z,3.53
2023-04-19T04:43:15.250Z,3.07
2023-04-19T04:44:16.786Z,3.43
2023-04-19T04:45:18.665Z,2.77
2023-04-19T04:46:20.384Z,3.10
2023-04-19T04:47:22.023Z,2.97
2023-04-19T04:48:24.243Z,3.20
2023-04-19T04:49:27.866Z,3.20
2023-04-19T04:50:29.620Z,3.57
2023-04-19T04:51:32.441Z,2.97
2023-04-19T04:52:34.237Z,3.07
2023-04-19T04:53:35.800Z,3.00
2023-04-19T04:54:37.342Z,3.43
2023-04-19T04:55:38.924Z,3.03
2023-04-19T04:56:40.730Z,3.10
2023-04-19T04:57:42.256Z,2.63
2023-04-19T04:58:43.760Z,2.93
2023-04-19T04:59:46.324Z,3.00
2023-04-19T05:00:49.137Z,2.90
2023-04-19T05:01:50.853Z,2.90
2023-04-19T05:02:52.544Z,2.17
2023-04-19T05:03:54.170Z,2.53
2023-04-19T05:04:55.960Z,2.47
2023-04-19T05:05:57.741Z,2.67
2023-04-19T05:06:59.319Z,2.80
2023-04-19T05:08:01.295Z,2.47
2023-04-19T05:09:03.348Z,2.90
2023-04-19T05:10:05.353Z,2.33
2023-04-19T05:11:06.965Z,2.40
2023-04-19T05:12:08.491Z,2.30
2023-04-19T05:13:10.044Z,2.40
2023-04-19T05:14:12.850Z,2.70
2023-04-19T05:15:14.557Z,2.80
2023-04-19T05:16:16.297Z,2.53
2023-04-19T05:17:17.896Z,2.63
2023-04-19T05:18:19.445Z,2.27
2023-04-19T05:19:21.012Z,2.73
2023-04-19T05:20:22.645Z,2.50
2023-04-19T05:21:24.252Z,2.67
2023-04-19T05:22:26.490Z,2.57
2023-04-19T05:23:28.020Z,2.40
2023-04-19T05:24:29.708Z,2.87
2023-04-19T05:25:31.299Z,3.07
2023-04-19T05:26:38.431Z,2.50
2023-04-19T05:27:40.116Z,2.67
2023-04-19T05:28:42.342Z,2.37
2023-04-19T05:29:43.933Z,2.67
2023-04-19T05:30:45.878Z,2.60
2023-04-19T05:31:47.549Z,2.63
2023-04-19T05:32:49.410Z,2.40
2023-04-19T05:33:50.952Z,2.50
2023-04-19T05:34:52.502Z,2.30
2023-04-19T05:35:54.052Z,2.27
2023-04-19T05:36:55.887Z,2.07
2023-04-19T05:37:57.478Z,2.20
2023-04-19T05:38:59.040Z,2.10
2023-04-19T05:40:00.735Z,2.30
2023-04-19T05:41:03.778Z,2.30
2023-04-19T05:42:05.424Z,2.40
2023-04-19T05:43:07.044Z,2.47
2023-04-19T05:44:08.618Z,2.23
2023-04-19T05:45:10.679Z,2.40
2023-04-19T05:46:12.256Z,2.70
2023-04-19T05:47:13.987Z,2.60
2023-04-19T05:48:15.550Z,2.50
2023-04-19T05:49:17.115Z,2.50
2023-04-19T05:50:20.631Z,2.43
2023-04-19T05:51:22.217Z,2.30
2023-04-19T05:52:23.803Z,2.27
2023-04-19T05:53:25.477Z,2.30
2023-04-19T05:54:29.229Z,2.23
2023-04-19T05:55:31.108Z,2.50
2023-04-19T05:56:32.858Z,2.10
2023-04-19T05:57:34.746Z,2.13
2023-04-19T05:58:36.785Z,2.40
2023-04-19T05:59:38.402Z,2.40
2023-04-19T06:00:40.048Z,2.30
2023-04-19T06:01:41.669Z,2.43
2023-04-19T06:02:44.719Z,2.47
2023-04-19T06:03:46.996Z,2.20
2023-04-19T06:04:49.605Z,2.50
2023-04-19T06:05:51.388Z,2.77
2023-04-19T06:06:53.496Z,2.23
2023-04-19T06:08:02.559Z,2.47
2023-04-19T06:09:04.831Z,2.63
2023-04-19T06:10:07.261Z,2.53
2023-04-19T06:11:20.277Z,2.70
2023-04-19T06:12:28.398Z,2.43
2023-04-19T06:13:29.999Z,2.73
2023-04-19T06:14:31.611Z,2.63
2023-04-19T06:15:33.234Z,2.67
2023-04-19T06:16:34.821Z,2.57
2023-04-19T06:17:36.448Z,2.50
2023-04-19T06:18:38.030Z,2.50
2023-04-19T06:19:39.616Z,2.57
2023-04-19T06:20:41.275Z,2.50
2023-04-19T06:21:43.089Z,2.57
2023-04-19T06:22:48.873Z,2.77
2023-04-19T06:23:50.504Z,2.90
2023-04-19T06:24:52.070Z,2.93
2023-04-19T06:25:53.632Z,2.87
2023-04-19T06:26:55.184Z,3.10
2023-04-19T06:27:56.785Z,3.00
2023-04-19T06:28:58.397Z,3.00
2023-04-19T06:30:01.035Z,2.70
2023-04-19T06:31:02.886Z,3.27
2023-04-19T06:32:04.782Z,3.10
2023-04-19T06:33:06.536Z,2.87
2023-04-19T06:34:08.113Z,2.80
2023-04-19T06:35:09.946Z,3.10
2023-04-19T06:36:11.574Z,3.10
2023-04-19T06:37:13.208Z,2.70
2023-04-19T06:38:14.774Z,3.07
2023-04-19T06:39:17.913Z,2.90
2023-04-19T06:40:19.558Z,2.67
2023-04-19T06:41:21.114Z,2.60
2023-04-19T06:42:23.561Z,1.97
2023-04-19T06:43:25.770Z,2.53
2023-04-19T06:44:27.938Z,2.80
2023-04-19T06:45:29.909Z,3.00
2023-04-19T06:46:31.782Z,2.70
2023-04-19T06:47:37.051Z,2.20
2023-04-19T06:48:38.824Z,2.60
2023-04-19T06:49:40.363Z,3.17
2023-04-19T06:50:41.953Z,2.23
2023-04-19T06:51:43.585Z,2.50
2023-04-19T06:52:45.147Z,2.80
2023-04-19T06:53:46.736Z,2.50
2023-04-19T06:54:49.400Z,2.80
2023-04-19T06:55:57.829Z,2.63
2023-04-19T06:56:59.345Z,2.50
2023-04-19T06:58:01.013Z,2.77
2023-04-19T06:59:02.727Z,2.30
2023-04-19T07:00:06.985Z,2.80
2023-04-19T07:01:08.720Z,2.60
2023-04-19T07:02:10.567Z,2.93
2023-04-19T07:03:12.304Z,2.70
2023-04-19T07:04:14.887Z,2.90
2023-04-19T07:05:17.173Z,3.00
2023-04-19T07:06:18.679Z,2.70
2023-04-19T07:07:20.248Z,2.53
2023-04-19T07:08:23.470Z,2.83
2023-04-19T07:09:25.222Z,2.63
2023-04-19T07:10:26.942Z,2.70
2023-04-19T07:11:28.603Z,3.13
2023-04-19T07:12:30.152Z,3.20
2023-04-19T07:13:31.782Z,3.50
2023-04-19T07:14:33.732Z,3.00
2023-04-19T07:15:35.558Z,3.40
2023-04-19T07:16:37.504Z,3.10
2023-04-19T07:17:39.162Z,3.70
2023-04-19T07:18:41.264Z,3.37
2023-04-19T07:19:47.654Z,3.00
2023-04-19T07:20:49.592Z,3.47
2023-04-19T07:21:51.378Z,3.53
2023-04-19T07:22:52.931Z,3.50
2023-04-19T07:23:54.512Z,3.37
2023-04-19T07:24:56.126Z,3.43
2023-04-19T07:25:57.682Z,2.90
2023-04-19T07:26:59.356Z,2.83
2023-04-19T07:28:00.923Z,3.27
2023-04-19T07:29:03.246Z,3.30
2023-04-19T07:30:05.300Z,3.57
2023-04-19T07:31:06.888Z,3.67
2023-04-19T07:32:08.760Z,4.30
2023-04-19T07:33:10.998Z,3.67
2023-04-19T07:34:12.620Z,3.57
2023-04-19T07:35:14.206Z,3.17
2023-04-19T07:36:15.846Z,3.60
2023-04-19T07:37:17.591Z,3.47
2023-04-19T07:38:19.308Z,3.70
2023-04-19T07:39:20.904Z,3.80
2023-04-19T07:40:22.495Z,3.70
2023-04-19T07:41:24.023Z,3.43
2023-04-19T07:42:26.017Z,3.90
2023-04-19T07:43:30.313Z,3.27
2023-04-19T07:44:32.393Z,3.17
2023-04-19T07:45:34.138Z,3.20
2023-04-19T07:46:35.781Z,3.37
2023-04-19T07:47:37.492Z,3.70
2023-04-19T07:48:39.170Z,3.40
2023-04-19T07:49:40.772Z,3.70
2023-04-19T07:50:42.298Z,3.90
2023-04-19T07:51:43.873Z,4.33
2023-04-19T07:52:45.510Z,4.37
2023-04-19T07:53:47.683Z,3.50
2023-04-19T07:54:49.294Z,4.00
2023-04-19T07:55:51.206Z,4.10
2023-04-19T07:56:52.860Z,4.47
2023-04-19T07:57:54.490Z,3.87
2023-04-19T07:59:06.725Z,4.13
2023-04-19T08:00:10.508Z,4.00
2023-04-19T08:01:12.240Z,4.20
2023-04-19T08:02:14.088Z,3.50
2023-04-19T08:03:16.068Z,3.50
2023-04-19T08:04:20.227Z,3.20
2023-04-19T08:05:23.490Z,4.10
2023-04-19T08:06:26.999Z,3.43
2023-04-19T08:07:28.639Z,3.37
2023-04-19T08:08:30.831Z,4.23
2023-04-19T08:09:34.436Z,3.70
2023-04-19T08:10:36.043Z,3.80
2023-04-19T08:11:37.575Z,3.60
2023-04-19T08:12:47.339Z,3.90
2023-04-19T08:14:26.023Z,3.93
2023-04-19T08:15:38.126Z,3.60
2023-04-19T08:17:19.555Z,4.10
2023-04-19T08:18:05.163Z,4.83
2023-04-19T08:19:06.976Z,4.70
2023-04-19T08:20:11.051Z,4.17
2023-04-19T08:21:12.574Z,3.87
2023-04-19T08:22:14.139Z,3.60
2023-04-19T08:23:23.948Z,3.60
2023-04-19T08:24:30.360Z,3.67
2023-04-19T08:25:32.324Z,3.73
2023-04-19T08:26:33.871Z,4.17
2023-04-19T08:27:35.870Z,3.60
2023-04-19T08:28:37.459Z,3.53
2023-04-19T08:29:39.851Z,3.07
2023-04-19T08:30:41.463Z,3.10
2023-04-19T08:31:44.517Z,3.07
2023-04-19T08:32:46.433Z,2.87
2023-04-19T08:33:48.225Z,2.67
2023-04-19T08:34:50.016Z,2.60
2023-04-19T08:35:51.655Z,2.93
2023-04-19T08:37:03.607Z,3.20
2023-04-19T08:38:05.793Z,3.60
2023-04-19T08:39:14.809Z,3.10
2023-04-19T08:40:31.603Z,2.80
2023-04-19T08:41:33.171Z,3.30
2023-04-19T08:42:36.795Z,2.90
2023-04-19T08:43:41.734Z,3.00
2023-04-19T08:44:59.694Z,2.83
2023-04-19T08:46:07.920Z,2.63
2023-04-19T08:47:15.228Z,2.83
2023-04-19T08:48:23.795Z,2.43
2023-04-19T08:49:26.057Z,2.90
2023-04-19T08:50:35.412Z,2.70
2023-04-19T08:51:43.304Z,2.57
2023-04-19T08:52:54.929Z,2.83
2023-04-19T08:54:01.120Z,2.70
2023-04-19T08:55:08.449Z,3.00
2023-04-19T08:56:18.090Z,2.70
2023-04-19T08:57:32.163Z,2.80
2023-04-19T08:59:39.379Z,2.65
2023-04-19T09:00:41.485Z,2.80
2023-04-19T09:01:44.766Z,2.53
2023-04-19T09:02:51.487Z,2.80
2023-04-19T09:04:06.706Z,2.50
2023-04-19T09:05:13.828Z,2.42
2023-04-19T09:06:15.956Z,2.75
2023-04-19T09:07:27.850Z,2.50
2023-04-19T09:08:32.659Z,2.45
2023-04-19T09:09:41.047Z,2.38
2023-04-19T09:10:59.318Z,2.10
2023-04-19T09:12:00.866Z,2.40
2023-04-19T09:13:04.584Z,2.40
2023-04-19T09:14:11.190Z,2.10
2023-04-19T09:15:12.788Z,2.08
2023-04-19T09:16:25.221Z,2.00
2023-04-19T09:17:27.004Z,2.22
2023-04-19T09:18:31.416Z,2.15
2023-04-19T09:19:54.966Z,1.98
2023-04-19T09:21:00.423Z,1.95
2023-04-19T09:22:13.445Z,1.80
2023-04-19T09:23:18.750Z,1.58
2023-04-19T09:25:04.340Z,1.80
2023-04-19T09:26:22.191Z,1.90
2023-04-19T09:27:33.938Z,1.48
2023-04-19T09:28:35.529Z,1.35
2023-04-19T09:29:37.093Z,1.90
2023-04-19T09:30:46.916Z,1.60
2023-04-19T09:32:00.080Z,1.73
2023-04-19T09:33:01.890Z,1.90
2023-04-19T09:34:14.739Z,2.00
2023-04-19T09:35:16.725Z,2.00
2023-04-19T09:36:31.904Z,2.28
2023-04-19T09:38:01.368Z,1.67
2023-04-19T09:38:55.162Z,1.80
2023-04-19T09:39:57.046Z,1.63
2023-04-19T09:41:08.919Z,1.70
2023-04-19T09:42:10.462Z,1.40
2023-04-19T09:43:45.285Z,1.60
2023-04-19T09:45:12.544Z,1.90
2023-04-19T09:45:56.657Z,1.75
2023-04-19T09:46:58.261Z,1.77
2023-04-19T09:48:05.200Z,1.70
2023-04-19T09:49:41.620Z,2.10
2023-04-19T09:51:02.536Z,2.00
2023-04-19T09:52:07.399Z,1.70
2023-04-19T09:53:10.811Z,1.95
2023-04-19T09:54:13.874Z,2.10
2023-04-19T09:55:26.850Z,1.67
2023-04-19T09:56:30.634Z,1.73
2023-04-19T09:57:33.717Z,1.52
2023-04-19T09:58:48.996Z,1.80
2023-04-19T09:59:52.578Z,1.42
2023-04-19T10:01:06.570Z,1.70
2023-04-19T10:02:14.924Z,1.45
2023-04-19T10:03:17.953Z,1.73
2023-04-19T10:04:32.679Z,1.42
2023-04-19T10:05:41.541Z,1.02
2023-04-19T10:07:07.001Z,1.20
2023-04-19T10:08:07.993Z,1.10
2023-04-19T10:09:10.820Z,1.30
2023-04-19T10:10:20.437Z,1.00
2023-04-19T10:11:26.889Z,1.00
2023-04-19T10:12:58.466Z,1.03
2023-04-19T10:13:59.944Z,0.80
2023-04-19T10:15:01.635Z,0.90
2023-04-19T10:16:15.543Z,0.90
2023-04-19T10:17:21.022Z,0.90
2023-04-19T10:18:23.256Z,1.30
2023-04-19T10:19:25.696Z,1.30
2023-04-19T10:20:42.158Z,1.13
2023-04-19T10:21:46.539Z,1.27
2023-04-19T10:22:48.740Z,1.27
2023-04-19T10:23:50.695Z,1.30
2023-04-19T10:25:17.674Z,1.10
2023-04-19T10:26:19.499Z,1.30
2023-04-19T10:27:25.765Z,1.33
2023-04-19T10:28:34.186Z,1.50
2023-04-19T10:29:55.697Z,1.40
2023-04-19T10:31:02.643Z,1.83
2023-04-19T10:32:06.222Z,1.47
2023-04-19T10:33:07.997Z,1.40
2023-04-19T10:34:12.698Z,1.23
2023-04-19T10:35:24.710Z,1.10
2023-04-19T10:36:27.725Z,1.90
2023-04-19T10:37:31.813Z,1.20
2023-04-19T10:38:37.629Z,1.80
2023-04-19T10:39:45.805Z,1.80
2023-04-19T10:41:01.679Z,1.30
2023-04-19T10:42:03.320Z,1.10
2023-04-19T10:43:10.676Z,1.07
2023-04-19T10:44:12.354Z,1.17
2023-04-19T10:45:35.997Z,1.30
2023-04-19T10:46:41.989Z,1.40
2023-04-19T10:47:46.592Z,1.37
2023-04-19T10:48:57.123Z,1.40
2023-04-19T10:49:58.734Z,1.37
2023-04-19T10:51:16.041Z,1.33
2023-04-19T10:52:29.567Z,1.40
2023-04-19T10:54:00.844Z,1.40
2023-04-19T10:55:06.054Z,1.20
2023-04-19T10:56:07.644Z,1.20
2023-04-19T10:57:11.259Z,1.43
2023-04-19T10:58:13.134Z,1.20
2023-04-19T10:59:21.516Z,1.23
2023-04-19T11:00:25.750Z,1.30
2023-04-19T11:01:46.269Z,1.37
2023-04-19T11:02:47.981Z,1.40
2023-04-19T11:03:49.692Z,1.30
2023-04-19T11:04:51.242Z,1.50
2023-04-19T11:06:23.051Z,1.57
2023-04-19T11:07:25.001Z,1.37
2023-04-19T11:08:26.826Z,1.53
2023-04-19T11:09:30.817Z,1.23
2023-04-19T11:10:32.384Z,1.50
2023-04-19T11:11:37.392Z,1.47
2023-04-19T11:12:43.278Z,1.63
2023-04-19T11:13:47.242Z,1.60
2023-04-19T11:15:00.153Z,1.13
2023-04-19T11:16:08.369Z,1.37
2023-04-19T11:17:19.098Z,1.00
2023-04-19T11:18:20.728Z,1.30
2023-04-19T11:19:22.361Z,1.10
2023-04-19T11:20:24.519Z,1.03
2023-04-19T11:21:29.913Z,1.30
2023-04-19T11:22:35.447Z,1.07
2023-04-19T11:23:36.966Z,1.10
2023-04-19T11:24:38.525Z,1.20
2023-04-19T11:25:40.202Z,1.13
2023-04-19T11:26:46.134Z,1.20
2023-04-19T11:27:50.002Z,1.07
2023-04-19T11:28:53.111Z,0.90
2023-04-19T11:30:03.281Z,1.07
2023-04-19T11:31:05.500Z,0.80
2023-04-19T11:32:07.585Z,0.77
2023-04-19T11:33:12.581Z,0.60
2023-04-19T11:34:14.437Z,0.40
2023-04-19T11:35:20.733Z,0.30
2023-04-19T11:36:22.369Z,0.30
2023-04-19T11:37:24.012Z,0.30
2023-04-19T11:38:28.338Z,0.23
2023-04-19T11:39:30.228Z,0.30
2023-04-19T11:40:32.174Z,0.30
2023-04-19T11:41:39.832Z,0.40
2023-04-19T11:42:41.490Z,0.37
2023-04-19T11:43:45.309Z,0.33
2023-04-19T11:44:51.767Z,0.60
2023-04-19T11:45:54.262Z,0.47
2023-04-19T11:47:05.194Z,0.50
2023-04-19T11:48:10.035Z,0.40
2023-04-19T11:49:25.764Z,0.43
2023-04-19T11:50:46.034Z,0.50
2023-04-19T11:51:47.589Z,0.40
2023-04-19T11:52:49.572Z,0.30
2023-04-19T11:53:51.134Z,0.40
2023-04-19T11:54:53.769Z,0.40
2023-04-19T11:56:08.582Z,0.40
2023-04-19T11:57:10.118Z,0.33
2023-04-19T11:58:33.484Z,0.40
2023-04-19T11:59:36.454Z,0.30
2023-04-19T12:00:38.210Z,0.40
2023-04-19T12:01:41.393Z,0.40
2023-04-19T12:02:44.838Z,0.53
2023-04-19T12:03:49.752Z,0.40
2023-04-19T12:04:52.124Z,0.43
2023-04-19T12:06:17.881Z,0.40
2023-04-19T12:07:19.416Z,0.20
2023-04-19T12:08:32.095Z,0.30
2023-04-19T12:09:37.033Z,0.50
2023-04-19T12:10:38.600Z,0.30
2023-04-19T12:11:49.922Z,0.40
2023-04-19T12:12:51.508Z,0.40
2023-04-19T12:14:10.654Z,0.50
2023-04-19T12:15:12.252Z,0.40
2023-04-19T12:16:14.162Z,0.33
2023-04-19T12:17:15.921Z,0.30
2023-04-19T12:18:17.600Z,0.33
2023-04-19T12:19:20.436Z,0.40
2023-04-19T12:20:33.048Z,0.40
2023-04-19T12:21:34.558Z,0.40
2023-04-19T12:22:36.239Z,0.33
2023-04-19T12:23:37.842Z,0.50
2023-04-19T12:24:40.862Z,0.40
2023-04-19T12:25:44.652Z,0.30
2023-04-19T12:26:57.379Z,0.30
2023-04-19T12:28:01.105Z,0.37
2023-04-19T12:29:03.695Z,0.60
2023-04-19T12:30:05.936Z,0.80
2023-04-19T12:31:07.541Z,0.60
2023-04-19T12:32:10.882Z,0.60
2023-04-19T12:33:12.787Z,0.70
2023-04-19T12:34:14.396Z,0.60
2023-04-19T12:35:15.987Z,0.60
2023-04-19T12:36:17.642Z,0.70
2023-04-19T12:37:19.185Z,0.80
2023-04-19T12:38:20.851Z,0.80
2023-04-19T12:39:22.997Z,0.50
2023-04-19T12:40:25.782Z,0.70
2023-04-19T12:41:27.426Z,0.60
2023-04-19T12:42:29.296Z,0.50
2023-04-19T12:43:31.977Z,0.50
2023-04-19T12:44:33.601Z,0.50
2023-04-19T12:45:35.266Z,0.70
2023-04-19T12:46:37.074Z,0.60
2023-04-19T12:47:42.058Z,0.80
2023-04-19T12:48:43.615Z,0.70
2023-04-19T12:49:45.272Z,0.67
2023-04-19T12:50:46.823Z,0.70
2023-04-19T12:51:48.437Z,0.60
2023-04-19T12:52:53.228Z,1.00
2023-04-19T12:53:54.845Z,0.90
2023-04-19T12:54:56.542Z,1.10
2023-04-19T12:55:58.650Z,1.10
2023-04-19T12:57:03.270Z,0.83
2023-04-19T12:58:05.043Z,1.00
2023-04-19T12:59:06.619Z,0.90
2023-04-19T13:00:10.591Z,0.90
2023-04-19T13:01:12.212Z,1.10
2023-04-19T13:02:13.895Z,0.90
2023-04-19T13:03:16.411Z,1.13
2023-04-19T13:04:18.388Z,1.07
2023-04-19T13:05:20.811Z,1.00
2023-04-19T13:06:22.318Z,1.00
2023-04-19T13:07:23.882Z,1.00
2023-04-19T13:08:41.074Z,0.80
2023-04-19T13:09:46.147Z,0.87
2023-04-19T13:10:48.079Z,0.83
2023-04-19T13:11:49.620Z,0.90
2023-04-19T13:12:51.254Z,0.73
2023-04-19T13:13:52.958Z,0.90
2023-04-19T13:14:54.761Z,0.87
2023-04-19T13:15:56.344Z,0.80
2023-04-19T13:16:58.132Z,0.87
2023-04-19T13:17:59.943Z,0.60
2023-04-19T13:19:01.684Z,0.87
2023-04-19T13:20:04.019Z,0.70
2023-04-19T13:21:08.029Z,0.50
2023-04-19T13:22:10.234Z,0.77
2023-04-19T13:23:11.992Z,0.47
2023-04-19T13:24:13.673Z,0.30
2023-04-19T13:25:15.232Z,0.60
2023-04-19T13:26:16.761Z,0.30
2023-04-19T13:27:18.287Z,0.43
2023-04-19T13:28:19.920Z,0.70
2023-04-19T13:29:21.471Z,0.40
2023-04-19T13:30:22.997Z,0.60
2023-04-19T13:31:25.437Z,0.40
2023-04-19T13:32:27.193Z,0.50
2023-04-19T13:33:29.100Z,0.60
2023-04-19T13:34:31.190Z,0.63
2023-04-19T13:35:32.748Z,0.40
2023-04-19T13:36:34.331Z,0.53
2023-04-19T13:37:35.903Z,0.60
2023-04-19T13:38:37.489Z,0.50
2023-04-19T13:39:39.376Z,0.50
2023-04-19T13:40:40.922Z,0.53
2023-04-19T13:41:42.530Z,0.50
2023-04-19T13:42:44.142Z,0.60
2023-04-19T13:43:45.804Z,0.50
2023-04-19T13:44:48.377Z,0.47
2023-04-19T13:45:51.755Z,0.50
2023-04-19T13:46:53.474Z,0.80
2023-04-19T13:47:55.068Z,0.87
2023-04-19T13:48:56.819Z,0.57
2023-04-19T13:49:58.350Z,0.57
2023-04-19T13:51:00.001Z,0.60
2023-04-19T13:52:01.618Z,0.53
2023-04-19T13:53:03.238Z,0.60
2023-04-19T13:54:04.972Z,0.60
2023-04-19T13:55:06.667Z,0.70
2023-04-19T13:56:09.688Z,0.60
2023-04-19T13:57:12.014Z,0.70
2023-04-19T13:58:13.616Z,0.73
2023-04-19T13:59:15.614Z,0.70
2023-04-19T14:00:17.801Z,0.50
2023-04-19T14:01:19.429Z,0.53
2023-04-19T14:02:21.319Z,0.50
2023-04-19T14:03:23.489Z,0.70
2023-04-19T14:04:25.868Z,0.67
2023-04-19T14:05:28.097Z,0.53
2023-04-19T14:06:29.854Z,0.70
2023-04-19T14:07:32.555Z,0.80
2023-04-19T14:08:34.048Z,0.83